RCH22 KNBG-KDLF
Flight info
| Callsign | RCH22 |
|---|---|
| Flight time | N/A |
| Altitude | 38000 |
| Route | MOLLR SAT CSI WEBOX4 |
| Aircraft | C17/H-SDE1E2FGHIJ5RTUWXY/LB1D1 |
Departure
| Time | 2026-05-06 22:55 |
|---|---|
| Airport | New Orleans NAS JRB/Alvin Callender Field (KNBG) |
Arrival
| Time | N/A |
|---|---|
| Airport | Laughlin Air Force Base (KDLF) |
| Time | Latitude | Longitude | Altitude | Speed | Heading |
|---|---|---|---|---|---|
| 2026-05-06 22:34 | 29.82597 | -90.02913 | 10 ft | 0 kts | 313° |
| 2026-05-06 22:49 | 29.82630 | -90.02940 | 9 ft | 14 kts | 349° |
| 2026-05-06 22:49 | 29.82730 | -90.02868 | 7 ft | 16 kts | 25° |
| 2026-05-06 22:49 | 29.82819 | -90.02879 | 5 ft | 13 kts | 22° |
| 2026-05-06 22:49 | 29.82892 | -90.02796 | 6 ft | 22 kts | 45° |
| 2026-05-06 22:50 | 29.83038 | -90.02633 | 8 ft | 37 kts | 44° |
| 2026-05-06 22:50 | 29.83253 | -90.02390 | 10 ft | 47 kts | 44° |
| 2026-05-06 22:50 | 29.83483 | -90.02133 | 6 ft | 45 kts | 44° |
| 2026-05-06 22:50 | 29.83697 | -90.01895 | 6 ft | 42 kts | 44° |
| 2026-05-06 22:51 | 29.83894 | -90.01675 | 10 ft | 38 kts | 44° |
| 2026-05-06 22:51 | 29.84074 | -90.01473 | 11 ft | 34 kts | 45° |
| 2026-05-06 22:51 | 29.84184 | -90.01387 | 9 ft | 6 kts | 325° |
| 2026-05-06 22:51 | 29.84223 | -90.01432 | 9 ft | 9 kts | 314° |
| 2026-05-06 22:52 | 29.84248 | -90.01462 | 11 ft | 0 kts | 314° |
| 2026-05-06 22:53 | 29.84286 | -90.01508 | 8 ft | 18 kts | 306° |
| 2026-05-06 22:54 | 29.84275 | -90.01584 | 7 ft | 8 kts | 225° |
| 2026-05-06 22:54 | 29.84255 | -90.01607 | 8 ft | 26 kts | 225° |
| 2026-05-06 22:54 | 29.83892 | -90.02013 | 6 ft | 116 kts | 224° |
| 2026-05-06 22:54 | 29.83171 | -90.02822 | 323 ft | 149 kts | 223° |
| 2026-05-06 22:55 | 29.82511 | -90.03624 | 1524 ft | 135 kts | 220° |
| 2026-05-06 22:55 | 29.81735 | -90.04521 | 2005 ft | 191 kts | 221° |
| 2026-05-06 22:55 | 29.80607 | -90.05761 | 2177 ft | 262 kts | 221° |
| 2026-05-06 22:55 | 29.79051 | -90.07417 | 2157 ft | 338 kts | 220° |
| 2026-05-06 22:56 | 29.77305 | -90.09209 | 4207 ft | 309 kts | 221° |
| 2026-05-06 22:56 | 29.76042 | -90.10457 | 8501 ft | 163 kts | 222° |
| 2026-05-06 22:56 | 29.75163 | -90.11287 | 10961 ft | 178 kts | 223° |
| 2026-05-06 22:56 | 29.74208 | -90.12203 | 11888 ft | 177 kts | 223° |
| 2026-05-06 22:57 | 29.73191 | -90.13191 | 12166 ft | 220 kts | 224° |
| 2026-05-06 22:57 | 29.71942 | -90.14571 | 12142 ft | 270 kts | 237° |
| 2026-05-06 22:57 | 29.71364 | -90.16656 | 13251 ft | 268 kts | 262° |
| 2026-05-06 22:57 | 29.71382 | -90.18536 | 15746 ft | 200 kts | 269° |
| 2026-05-06 22:58 | 29.71434 | -90.19978 | 17621 ft | 177 kts | 267° |
| 2026-05-06 22:58 | 29.71435 | -90.21574 | 17513 ft | 230 kts | 267° |
| 2026-05-06 22:58 | 29.71436 | -90.23712 | 16977 ft | 292 kts | 268° |
| 2026-05-06 22:58 | 29.71464 | -90.26095 | 17746 ft | 311 kts | 268° |
| 2026-05-06 22:59 | 29.71484 | -90.28696 | 18336 ft | 336 kts | 268° |
| 2026-05-06 22:59 | 29.71500 | -90.31456 | 18835 ft | 361 kts | 268° |
| 2026-05-06 22:59 | 29.71519 | -90.34454 | 19319 ft | 384 kts | 269° |
| 2026-05-06 22:59 | 29.71539 | -90.37595 | 19832 ft | 407 kts | 269° |
| 2026-05-06 23:00 | 29.71560 | -90.40948 | 20329 ft | 428 kts | 268° |
| 2026-05-06 23:00 | 29.71581 | -90.44461 | 20838 ft | 449 kts | 268° |
| 2026-05-06 23:00 | 29.71601 | -90.48120 | 21340 ft | 450 kts | 269° |
| 2026-05-06 23:00 | 29.71627 | -90.51488 | 22298 ft | 391 kts | 268° |
| 2026-05-06 23:01 | 29.71644 | -90.54386 | 23242 ft | 350 kts | 268° |
| 2026-05-06 23:01 | 29.71649 | -90.57203 | 24131 ft | 352 kts | 268° |
| 2026-05-06 23:01 | 29.71659 | -90.59938 | 24981 ft | 324 kts | 268° |
| 2026-05-06 23:01 | 29.71678 | -90.62376 | 25774 ft | 291 kts | 268° |
| 2026-05-06 23:02 | 29.71684 | -90.64719 | 26504 ft | 295 kts | 268° |
| 2026-05-06 23:02 | 29.71689 | -90.67081 | 27175 ft | 306 kts | 268° |
| 2026-05-06 23:02 | 29.71698 | -90.69625 | 27241 ft | 315 kts | 268° |
| 2026-05-06 23:02 | 29.71712 | -90.72109 | 27755 ft | 315 kts | 268° |
| 2026-05-06 23:03 | 29.71719 | -90.74695 | 28282 ft | 328 kts | 269° |
| 2026-05-06 23:03 | 29.71728 | -90.77314 | 28818 ft | 331 kts | 268° |
| 2026-05-06 23:03 | 29.71737 | -90.79967 | 29347 ft | 331 kts | 268° |
| 2026-05-06 23:03 | 29.71744 | -90.82640 | 29883 ft | 335 kts | 268° |
| 2026-05-06 23:04 | 29.71752 | -90.85346 | 30361 ft | 339 kts | 269° |
| 2026-05-06 23:04 | 29.71759 | -90.88055 | 30818 ft | 342 kts | 269° |
| 2026-05-06 23:04 | 29.71766 | -90.90817 | 31301 ft | 344 kts | 269° |
| 2026-05-06 23:04 | 29.71771 | -90.93552 | 31747 ft | 346 kts | 269° |
| 2026-05-06 23:05 | 29.71776 | -90.96356 | 32238 ft | 351 kts | 269° |
| 2026-05-06 23:05 | 29.71781 | -90.99194 | 32741 ft | 356 kts | 269° |
| 2026-05-06 23:05 | 29.71785 | -91.02021 | 33242 ft | 356 kts | 269° |
| 2026-05-06 23:05 | 29.71789 | -91.04883 | 33752 ft | 358 kts | 270° |
| 2026-05-06 23:06 | 29.71792 | -91.07733 | 34221 ft | 363 kts | 270° |
| 2026-05-06 23:06 | 29.71794 | -91.10672 | 34686 ft | 368 kts | 269° |
| 2026-05-06 23:06 | 29.71796 | -91.13606 | 35149 ft | 369 kts | 269° |
| 2026-05-06 23:06 | 29.71797 | -91.16577 | 35639 ft | 371 kts | 269° |
| 2026-05-06 23:07 | 29.71798 | -91.19533 | 36122 ft | 374 kts | 268° |
| 2026-05-06 23:07 | 29.71797 | -91.22561 | 36607 ft | 379 kts | 268° |
| 2026-05-06 23:07 | 29.71797 | -91.25584 | 37121 ft | 383 kts | 268° |
| 2026-05-06 23:07 | 29.71795 | -91.28685 | 37642 ft | 386 kts | 268° |
| 2026-05-06 23:08 | 29.71793 | -91.31805 | 37919 ft | 395 kts | 268° |
| 2026-05-06 23:08 | 29.71784 | -91.38258 | 37957 ft | 422 kts | 268° |
| 2026-05-06 23:09 | 29.71780 | -91.44881 | 37921 ft | 396 kts | 268° |
| 2026-05-06 23:09 | 29.71760 | -91.51172 | 37933 ft | 397 kts | 268° |
| 2026-05-06 23:10 | 29.71746 | -91.57543 | 37944 ft | 404 kts | 268° |
| 2026-05-06 23:10 | 29.71731 | -91.62923 | 37933 ft | 401 kts | 268° |
| 2026-05-06 23:11 | 29.71708 | -91.69304 | 37930 ft | 400 kts | 268° |
| 2026-05-06 23:11 | 29.71683 | -91.75758 | 37925 ft | 403 kts | 267° |
| 2026-05-06 23:12 | 29.71655 | -91.82173 | 37919 ft | 401 kts | 267° |
| 2026-05-06 23:12 | 29.71623 | -91.88556 | 37909 ft | 400 kts | 267° |
| 2026-05-06 23:13 | 29.71589 | -91.94977 | 37914 ft | 402 kts | 267° |
| 2026-05-06 23:13 | 29.71551 | -92.01424 | 37914 ft | 401 kts | 267° |
| 2026-05-06 23:14 | 29.71510 | -92.07823 | 37909 ft | 400 kts | 267° |
| 2026-05-06 23:14 | 29.71467 | -92.14223 | 37910 ft | 402 kts | 267° |
| 2026-05-06 23:15 | 29.71420 | -92.20642 | 37915 ft | 401 kts | 267° |
| 2026-05-06 23:15 | 29.71370 | -92.27073 | 37913 ft | 400 kts | 267° |
| 2026-05-06 23:16 | 29.71317 | -92.33456 | 37910 ft | 400 kts | 266° |
| 2026-05-06 23:16 | 29.71261 | -92.39858 | 37907 ft | 398 kts | 266° |
| 2026-05-06 23:17 | 29.71203 | -92.46202 | 37911 ft | 400 kts | 266° |
| 2026-05-06 23:17 | 29.71141 | -92.52595 | 37913 ft | 400 kts | 266° |
| 2026-05-06 23:18 | 29.71075 | -92.58984 | 37909 ft | 399 kts | 266° |
| 2026-05-06 23:18 | 29.71007 | -92.65395 | 37906 ft | 400 kts | 266° |
| 2026-05-06 23:19 | 29.70937 | -92.71773 | 37900 ft | 398 kts | 266° |
| 2026-05-06 23:19 | 29.70863 | -92.78089 | 37893 ft | 396 kts | 266° |
| 2026-05-06 23:20 | 29.70785 | -92.84475 | 37905 ft | 399 kts | 266° |
| 2026-05-06 23:20 | 29.70706 | -92.90853 | 37897 ft | 398 kts | 266° |
| 2026-05-06 23:21 | 29.70622 | -92.97183 | 37896 ft | 397 kts | 266° |
| 2026-05-06 23:21 | 29.70536 | -93.03545 | 37893 ft | 399 kts | 266° |
| 2026-05-06 23:22 | 29.70447 | -93.09931 | 37903 ft | 397 kts | 266° |
| 2026-05-06 23:22 | 29.70356 | -93.16231 | 37896 ft | 396 kts | 266° |
| 2026-05-06 23:23 | 29.70260 | -93.22575 | 37897 ft | 398 kts | 266° |
| 2026-05-06 23:23 | 29.70162 | -93.28961 | 37900 ft | 397 kts | 266° |
| 2026-05-06 23:24 | 29.70061 | -93.35287 | 37892 ft | 396 kts | 266° |
| 2026-05-06 23:24 | 29.69958 | -93.41630 | 37900 ft | 398 kts | 266° |
| 2026-05-06 23:25 | 29.69850 | -93.47983 | 37904 ft | 397 kts | 266° |
| 2026-05-06 23:25 | 29.69740 | -93.54340 | 37890 ft | 396 kts | 266° |